sensor_id;sensor_type;location;lat;lon;timestamp;P1;durP1;ratioP1;P2;durP2;ratioP2
21786;SDS011;11055;50.870;4.316;2023-02-19T00:01:13;14.48;;;10.02;;
21786;SDS011;11055;50.870;4.316;2023-02-19T00:03:42;14.07;;;10.20;;
21786;SDS011;11055;50.870;4.316;2023-02-19T00:06:11;15.13;;;10.85;;
21786;SDS011;11055;50.870;4.316;2023-02-19T00:08:37;16.95;;;11.35;;
21786;SDS011;11055;50.870;4.316;2023-02-19T00:11:08;13.82;;;9.95;;
21786;SDS011;11055;50.870;4.316;2023-02-19T00:13:37;15.32;;;10.30;;
21786;SDS011;11055;50.870;4.316;2023-02-19T00:16:05;16.35;;;10.63;;
21786;SDS011;11055;50.870;4.316;2023-02-19T00:18:50;18.27;;;10.60;;
21786;SDS011;11055;50.870;4.316;2023-02-19T00:21:17;14.40;;;9.57;;
21786;SDS011;11055;50.870;4.316;2023-02-19T00:23:47;15.13;;;9.73;;
21786;SDS011;11055;50.870;4.316;2023-02-19T00:26:14;16.50;;;10.25;;
21786;SDS011;11055;50.870;4.316;2023-02-19T00:28:39;14.40;;;9.13;;
21786;SDS011;11055;50.870;4.316;2023-02-19T00:31:06;14.75;;;9.13;;
21786;SDS011;11055;50.870;4.316;2023-02-19T00:33:41;12.38;;;8.55;;
21786;SDS011;11055;50.870;4.316;2023-02-19T00:36:06;15.95;;;9.43;;
21786;SDS011;11055;50.870;4.316;2023-02-19T00:38:35;14.20;;;9.77;;
21786;SDS011;11055;50.870;4.316;2023-02-19T00:41:02;12.65;;;9.15;;
21786;SDS011;11055;50.870;4.316;2023-02-19T00:43:44;15.50;;;9.07;;
21786;SDS011;11055;50.870;4.316;2023-02-19T00:46:09;12.23;;;8.80;;
21786;SDS011;11055;50.870;4.316;2023-02-19T00:48:35;14.00;;;8.63;;
21786;SDS011;11055;50.870;4.316;2023-02-19T00:51:01;15.45;;;8.40;;
21786;SDS011;11055;50.870;4.316;2023-02-19T00:53:26;12.57;;;8.15;;
21786;SDS011;11055;50.870;4.316;2023-02-19T00:55:52;10.25;;;7.70;;
21786;SDS011;11055;50.870;4.316;2023-02-19T00:58:18;10.30;;;7.55;;
21786;SDS011;11055;50.870;4.316;2023-02-19T01:00:43;10.70;;;7.47;;
21786;SDS011;11055;50.870;4.316;2023-02-19T01:03:09;10.05;;;6.65;;
21786;SDS011;11055;50.870;4.316;2023-02-19T01:05:34;12.82;;;7.72;;
21786;SDS011;11055;50.870;4.316;2023-02-19T01:08:00;11.45;;;7.50;;
21786;SDS011;11055;50.870;4.316;2023-02-19T01:10:26;12.65;;;6.82;;
21786;SDS011;11055;50.870;4.316;2023-02-19T01:12:51;10.70;;;6.82;;
21786;SDS011;11055;50.870;4.316;2023-02-19T01:15:17;12.00;;;7.05;;
21786;SDS011;11055;50.870;4.316;2023-02-19T01:17:43;10.32;;;6.35;;
21786;SDS011;11055;50.870;4.316;2023-02-19T01:20:08;11.32;;;6.95;;
21786;SDS011;11055;50.870;4.316;2023-02-19T01:22:34;8.98;;;5.93;;
21786;SDS011;11055;50.870;4.316;2023-02-19T01:25:00;12.95;;;6.72;;
21786;SDS011;11055;50.870;4.316;2023-02-19T01:27:25;10.85;;;6.47;;
21786;SDS011;11055;50.870;4.316;2023-02-19T01:29:51;13.40;;;7.32;;
21786;SDS011;11055;50.870;4.316;2023-02-19T01:32:17;12.70;;;6.25;;
21786;SDS011;11055;50.870;4.316;2023-02-19T01:34:42;10.93;;;6.22;;
21786;SDS011;11055;50.870;4.316;2023-02-19T01:37:08;10.50;;;5.55;;
21786;SDS011;11055;50.870;4.316;2023-02-19T01:39:36;13.07;;;5.75;;
21786;SDS011;11055;50.870;4.316;2023-02-19T01:42:03;11.88;;;5.00;;
21786;SDS011;11055;50.870;4.316;2023-02-19T01:46:55;11.27;;;5.35;;
21786;SDS011;11055;50.870;4.316;2023-02-19T01:54:47;11.50;;;4.40;;
21786;SDS011;11055;50.870;4.316;2023-02-19T01:57:18;10.23;;;4.80;;
21786;SDS011;11055;50.870;4.316;2023-02-19T01:59:48;11.63;;;4.90;;
21786;SDS011;11055;50.870;4.316;2023-02-19T02:04:44;8.77;;;3.92;;
21786;SDS011;11055;50.870;4.316;2023-02-19T02:07:10;11.20;;;4.25;;
21786;SDS011;11055;50.870;4.316;2023-02-19T02:09:54;8.10;;;3.63;;
21786;SDS011;11055;50.870;4.316;2023-02-19T02:12:39;11.88;;;3.65;;
21786;SDS011;11055;50.870;4.316;2023-02-19T02:15:05;13.45;;;3.78;;
21786;SDS011;11055;50.870;4.316;2023-02-19T02:17:38;9.23;;;3.83;;
21786;SDS011;11055;50.870;4.316;2023-02-19T02:23:14;10.02;;;3.58;;
21786;SDS011;11055;50.870;4.316;2023-02-19T02:26:19;10.20;;;3.15;;
21786;SDS011;11055;50.870;4.316;2023-02-19T02:32:08;10.50;;;3.75;;
21786;SDS011;11055;50.870;4.316;2023-02-19T02:34:50;12.23;;;2.97;;
21786;SDS011;11055;50.870;4.316;2023-02-19T02:37:22;10.90;;;3.22;;
21786;SDS011;11055;50.870;4.316;2023-02-19T02:39:52;10.88;;;3.03;;
21786;SDS011;11055;50.870;4.316;2023-02-19T02:42:20;9.27;;;3.13;;
21786;SDS011;11055;50.870;4.316;2023-02-19T02:44:52;16.80;;;9.35;;
21786;SDS011;11055;50.870;4.316;2023-02-19T02:47:47;10.60;;;3.00;;
21786;SDS011;11055;50.870;4.316;2023-02-19T02:50:27;10.30;;;2.80;;
21786;SDS011;11055;50.870;4.316;2023-02-19T02:52:59;13.68;;;3.08;;
21786;SDS011;11055;50.870;4.316;2023-02-19T02:55:48;9.93;;;2.38;;
21786;SDS011;11055;50.870;4.316;2023-02-19T02:58:17;12.88;;;3.03;;
21786;SDS011;11055;50.870;4.316;2023-02-19T03:00:45;10.80;;;3.13;;
21786;SDS011;11055;50.870;4.316;2023-02-19T03:03:36;12.38;;;2.95;;
21786;SDS011;11055;50.870;4.316;2023-02-19T03:06:05;10.23;;;2.63;;
21786;SDS011;11055;50.870;4.316;2023-02-19T03:08:34;9.93;;;2.67;;
21786;SDS011;11055;50.870;4.316;2023-02-19T03:11:09;8.25;;;2.38;;
21786;SDS011;11055;50.870;4.316;2023-02-19T03:14:15;10.52;;;2.70;;
21786;SDS011;11055;50.870;4.316;2023-02-19T03:17:20;11.02;;;2.58;;
21786;SDS011;11055;50.870;4.316;2023-02-19T03:20:10;9.32;;;2.58;;
21786;SDS011;11055;50.870;4.316;2023-02-19T03:22:39;9.57;;;2.63;;
21786;SDS011;11055;50.870;4.316;2023-02-19T03:25:08;14.57;;;2.63;;
21786;SDS011;11055;50.870;4.316;2023-02-19T03:27:56;9.40;;;2.53;;
21786;SDS011;11055;50.870;4.316;2023-02-19T03:30:26;12.70;;;2.60;;
21786;SDS011;11055;50.870;4.316;2023-02-19T03:32:56;8.55;;;2.55;;
21786;SDS011;11055;50.870;4.316;2023-02-19T03:35:25;12.63;;;2.40;;
21786;SDS011;11055;50.870;4.316;2023-02-19T03:40:53;12.82;;;2.70;;
21786;SDS011;11055;50.870;4.316;2023-02-19T03:46:41;10.00;;;2.40;;
21786;SDS011;11055;50.870;4.316;2023-02-19T03:51:50;10.65;;;2.42;;
21786;SDS011;11055;50.870;4.316;2023-02-19T03:56:59;9.52;;;2.50;;
21786;SDS011;11055;50.870;4.316;2023-02-19T03:59:38;15.95;;;2.88;;
21786;SDS011;11055;50.870;4.316;2023-02-19T04:02:28;12.82;;;2.75;;
21786;SDS011;11055;50.870;4.316;2023-02-19T04:05:01;8.40;;;2.00;;
21786;SDS011;11055;50.870;4.316;2023-02-19T04:07:38;10.95;;;2.60;;
21786;SDS011;11055;50.870;4.316;2023-02-19T04:10:07;9.80;;;2.28;;
21786;SDS011;11055;50.870;4.316;2023-02-19T04:12:35;12.35;;;2.40;;
21786;SDS011;11055;50.870;4.316;2023-02-19T04:15:09;10.82;;;2.38;;
21786;SDS011;11055;50.870;4.316;2023-02-19T04:17:41;10.02;;;2.15;;
21786;SDS011;11055;50.870;4.316;2023-02-19T04:20:11;12.60;;;3.55;;
21786;SDS011;11055;50.870;4.316;2023-02-19T04:22:38;11.25;;;2.95;;
21786;SDS011;11055;50.870;4.316;2023-02-19T04:25:05;16.55;;;3.08;;
21786;SDS011;11055;50.870;4.316;2023-02-19T04:27:36;12.60;;;2.55;;
21786;SDS011;11055;50.870;4.316;2023-02-19T04:30:05;11.87;;;2.60;;
21786;SDS011;11055;50.870;4.316;2023-02-19T04:32:32;13.50;;;3.20;;
21786;SDS011;11055;50.870;4.316;2023-02-19T04:34:58;12.38;;;2.33;;
21786;SDS011;11055;50.870;4.316;2023-02-19T04:37:23;12.82;;;2.72;;
21786;SDS011;11055;50.870;4.316;2023-02-19T04:39:49;12.10;;;2.67;;
21786;SDS011;11055;50.870;4.316;2023-02-19T04:42:14;13.40;;;2.60;;
21786;SDS011;11055;50.870;4.316;2023-02-19T04:44:40;17.85;;;3.40;;
21786;SDS011;11055;50.870;4.316;2023-02-19T04:47:06;13.48;;;2.47;;
21786;SDS011;11055;50.870;4.316;2023-02-19T04:49:32;18.25;;;3.20;;
21786;SDS011;11055;50.870;4.316;2023-02-19T04:51:57;16.35;;;2.60;;
21786;SDS011;11055;50.870;4.316;2023-02-19T04:54:23;12.75;;;2.67;;
21786;SDS011;11055;50.870;4.316;2023-02-19T04:56:49;11.32;;;3.33;;
21786;SDS011;11055;50.870;4.316;2023-02-19T04:59:15;12.85;;;2.58;;
21786;SDS011;11055;50.870;4.316;2023-02-19T05:01:41;14.82;;;3.20;;
21786;SDS011;11055;50.870;4.316;2023-02-19T05:04:07;12.43;;;2.55;;
21786;SDS011;11055;50.870;4.316;2023-02-19T05:06:32;12.57;;;2.83;;
21786;SDS011;11055;50.870;4.316;2023-02-19T05:08:58;11.95;;;2.88;;
21786;SDS011;11055;50.870;4.316;2023-02-19T05:11:23;15.02;;;3.17;;
21786;SDS011;11055;50.870;4.316;2023-02-19T05:13:49;14.85;;;2.75;;
21786;SDS011;11055;50.870;4.316;2023-02-19T05:16:15;11.20;;;2.97;;
21786;SDS011;11055;50.870;4.316;2023-02-19T05:18:42;11.55;;;2.78;;
21786;SDS011;11055;50.870;4.316;2023-02-19T05:21:09;17.88;;;3.03;;
21786;SDS011;11055;50.870;4.316;2023-02-19T05:23:35;12.13;;;2.83;;
21786;SDS011;11055;50.870;4.316;2023-02-19T05:26:04;15.40;;;2.80;;
21786;SDS011;11055;50.870;4.316;2023-02-19T05:28:31;15.73;;;3.70;;
21786;SDS011;11055;50.870;4.316;2023-02-19T05:30:57;16.88;;;2.67;;
21786;SDS011;11055;50.870;4.316;2023-02-19T05:33:27;16.15;;;2.83;;
21786;SDS011;11055;50.870;4.316;2023-02-19T05:35:54;15.02;;;2.78;;
21786;SDS011;11055;50.870;4.316;2023-02-19T05:38:20;14.10;;;3.25;;
21786;SDS011;11055;50.870;4.316;2023-02-19T05:40:46;13.60;;;2.80;;
21786;SDS011;11055;50.870;4.316;2023-02-19T05:43:13;10.50;;;2.55;;
21786;SDS011;11055;50.870;4.316;2023-02-19T05:45:39;15.68;;;3.00;;
21786;SDS011;11055;50.870;4.316;2023-02-19T05:48:05;13.40;;;2.53;;
21786;SDS011;11055;50.870;4.316;2023-02-19T05:50:32;11.70;;;2.70;;
21786;SDS011;11055;50.870;4.316;2023-02-19T05:53:00;14.88;;;2.78;;
21786;SDS011;11055;50.870;4.316;2023-02-19T05:55:27;10.70;;;2.70;;
21786;SDS011;11055;50.870;4.316;2023-02-19T05:57:53;14.20;;;3.00;;
21786;SDS011;11055;50.870;4.316;2023-02-19T06:00:19;12.45;;;3.20;;
21786;SDS011;11055;50.870;4.316;2023-02-19T06:02:45;14.82;;;3.13;;
21786;SDS011;11055;50.870;4.316;2023-02-19T06:05:11;10.40;;;2.40;;
21786;SDS011;11055;50.870;4.316;2023-02-19T06:07:37;14.27;;;2.80;;
21786;SDS011;11055;50.870;4.316;2023-02-19T06:10:06;11.25;;;2.47;;
21786;SDS011;11055;50.870;4.316;2023-02-19T06:12:36;13.20;;;2.88;;
21786;SDS011;11055;50.870;4.316;2023-02-19T06:15:03;14.32;;;2.63;;
21786;SDS011;11055;50.870;4.316;2023-02-19T06:17:29;15.63;;;3.10;;
21786;SDS011;11055;50.870;4.316;2023-02-19T06:19:56;12.30;;;2.50;;
21786;SDS011;11055;50.870;4.316;2023-02-19T06:22:22;12.10;;;2.80;;
21786;SDS011;11055;50.870;4.316;2023-02-19T06:24:47;16.63;;;2.85;;
21786;SDS011;11055;50.870;4.316;2023-02-19T06:27:13;12.05;;;2.75;;
21786;SDS011;11055;50.870;4.316;2023-02-19T06:29:38;14.43;;;3.00;;
21786;SDS011;11055;50.870;4.316;2023-02-19T06:32:04;14.63;;;3.13;;
21786;SDS011;11055;50.870;4.316;2023-02-19T06:34:31;14.88;;;2.90;;
21786;SDS011;11055;50.870;4.316;2023-02-19T06:36:58;13.27;;;2.92;;
21786;SDS011;11055;50.870;4.316;2023-02-19T06:39:24;15.00;;;3.13;;
21786;SDS011;11055;50.870;4.316;2023-02-19T06:41:49;12.50;;;2.63;;
21786;SDS011;11055;50.870;4.316;2023-02-19T06:44:15;15.43;;;3.13;;
21786;SDS011;11055;50.870;4.316;2023-02-19T06:46:41;12.05;;;2.55;;
21786;SDS011;11055;50.870;4.316;2023-02-19T06:49:07;14.73;;;3.25;;
21786;SDS011;11055;50.870;4.316;2023-02-19T06:51:33;14.80;;;3.20;;
21786;SDS011;11055;50.870;4.316;2023-02-19T06:53:58;11.15;;;3.20;;
21786;SDS011;11055;50.870;4.316;2023-02-19T06:59:00;14.68;;;2.97;;
21786;SDS011;11055;50.870;4.316;2023-02-19T07:03:53;14.65;;;3.13;;
21786;SDS011;11055;50.870;4.316;2023-02-19T07:06:20;14.43;;;2.75;;
21786;SDS011;11055;50.870;4.316;2023-02-19T07:08:46;13.65;;;2.88;;
21786;SDS011;11055;50.870;4.316;2023-02-19T07:11:13;12.02;;;2.88;;
21786;SDS011;11055;50.870;4.316;2023-02-19T07:13:38;11.50;;;2.75;;
21786;SDS011;11055;50.870;4.316;2023-02-19T07:16:05;10.23;;;3.15;;
21786;SDS011;11055;50.870;4.316;2023-02-19T07:18:33;10.93;;;2.53;;
21786;SDS011;11055;50.870;4.316;2023-02-19T07:21:03;13.52;;;2.88;;
21786;SDS011;11055;50.870;4.316;2023-02-19T07:23:30;15.35;;;3.53;;
21786;SDS011;11055;50.870;4.316;2023-02-19T07:25:55;17.30;;;5.68;;
21786;SDS011;11055;50.870;4.316;2023-02-19T07:28:21;10.38;;;2.97;;
21786;SDS011;11055;50.870;4.316;2023-02-19T07:30:47;13.07;;;3.90;;
21786;SDS011;11055;50.870;4.316;2023-02-19T07:33:12;19.52;;;6.57;;
21786;SDS011;11055;50.870;4.316;2023-02-19T07:35:43;17.75;;;6.65;;
21786;SDS011;11055;50.870;4.316;2023-02-19T07:38:10;14.57;;;4.32;;
21786;SDS011;11055;50.870;4.316;2023-02-19T07:40:35;8.90;;;3.42;;
21786;SDS011;11055;50.870;4.316;2023-02-19T07:43:01;13.35;;;3.70;;
21786;SDS011;11055;50.870;4.316;2023-02-19T07:45:27;15.43;;;3.33;;
21786;SDS011;11055;50.870;4.316;2023-02-19T07:47:53;8.50;;;2.60;;
21786;SDS011;11055;50.870;4.316;2023-02-19T07:50:18;11.50;;;4.03;;
21786;SDS011;11055;50.870;4.316;2023-02-19T07:52:44;14.45;;;7.63;;
21786;SDS011;11055;50.870;4.316;2023-02-19T07:55:09;14.07;;;5.57;;
21786;SDS011;11055;50.870;4.316;2023-02-19T07:57:35;13.45;;;3.60;;
21786;SDS011;11055;50.870;4.316;2023-02-19T08:00:01;11.95;;;3.60;;
21786;SDS011;11055;50.870;4.316;2023-02-19T08:02:26;28.52;;;4.22;;
21786;SDS011;11055;50.870;4.316;2023-02-19T08:05:11;11.25;;;2.78;;
21786;SDS011;11055;50.870;4.316;2023-02-19T08:07:37;11.60;;;2.60;;
21786;SDS011;11055;50.870;4.316;2023-02-19T08:10:03;12.63;;;3.53;;
21786;SDS011;11055;50.870;4.316;2023-02-19T08:12:55;12.07;;;4.20;;
21786;SDS011;11055;50.870;4.316;2023-02-19T08:15:42;10.80;;;3.20;;
21786;SDS011;11055;50.870;4.316;2023-02-19T08:18:09;13.68;;;3.15;;
21786;SDS011;11055;50.870;4.316;2023-02-19T08:20:34;12.02;;;3.60;;
21786;SDS011;11055;50.870;4.316;2023-02-19T08:23:00;14.73;;;4.10;;
21786;SDS011;11055;50.870;4.316;2023-02-19T08:25:26;16.20;;;6.65;;
21786;SDS011;11055;50.870;4.316;2023-02-19T08:27:52;11.60;;;4.25;;
21786;SDS011;11055;50.870;4.316;2023-02-19T08:30:17;12.18;;;3.90;;
21786;SDS011;11055;50.870;4.316;2023-02-19T08:32:43;15.07;;;3.88;;
21786;SDS011;11055;50.870;4.316;2023-02-19T08:35:09;8.63;;;2.63;;
21786;SDS011;11055;50.870;4.316;2023-02-19T08:37:34;10.85;;;2.67;;
21786;SDS011;11055;50.870;4.316;2023-02-19T08:40:00;12.57;;;4.18;;
21786;SDS011;11055;50.870;4.316;2023-02-19T08:42:27;13.10;;;3.25;;
21786;SDS011;11055;50.870;4.316;2023-02-19T08:44:53;12.65;;;3.50;;
21786;SDS011;11055;50.870;4.316;2023-02-19T08:47:19;11.32;;;2.65;;
21786;SDS011;11055;50.870;4.316;2023-02-19T08:49:45;13.80;;;3.22;;
21786;SDS011;11055;50.870;4.316;2023-02-19T08:52:10;16.45;;;6.78;;
21786;SDS011;11055;50.870;4.316;2023-02-19T08:54:36;11.63;;;3.90;;
21786;SDS011;11055;50.870;4.316;2023-02-19T08:57:02;11.02;;;3.50;;
21786;SDS011;11055;50.870;4.316;2023-02-19T08:59:29;10.73;;;3.65;;
21786;SDS011;11055;50.870;4.316;2023-02-19T09:01:55;12.40;;;3.72;;
21786;SDS011;11055;50.870;4.316;2023-02-19T09:04:23;10.77;;;3.47;;
21786;SDS011;11055;50.870;4.316;2023-02-19T09:06:48;14.73;;;2.97;;
21786;SDS011;11055;50.870;4.316;2023-02-19T09:09:14;13.55;;;3.38;;
21786;SDS011;11055;50.870;4.316;2023-02-19T09:11:40;13.15;;;4.07;;
21786;SDS011;11055;50.870;4.316;2023-02-19T09:14:06;12.27;;;4.30;;
21786;SDS011;11055;50.870;4.316;2023-02-19T09:16:32;12.30;;;4.22;;
21786;SDS011;11055;50.870;4.316;2023-02-19T09:18:58;13.10;;;3.47;;
21786;SDS011;11055;50.870;4.316;2023-02-19T09:21:24;16.27;;;3.95;;
21786;SDS011;11055;50.870;4.316;2023-02-19T09:23:49;16.08;;;6.38;;
21786;SDS011;11055;50.870;4.316;2023-02-19T09:26:15;10.18;;;3.55;;
21786;SDS011;11055;50.870;4.316;2023-02-19T09:28:41;11.15;;;2.50;;
21786;SDS011;11055;50.870;4.316;2023-02-19T09:31:08;13.52;;;3.60;;
21786;SDS011;11055;50.870;4.316;2023-02-19T09:36:10;10.98;;;3.30;;
21786;SDS011;11055;50.870;4.316;2023-02-19T09:38:37;8.43;;;2.75;;
21786;SDS011;11055;50.870;4.316;2023-02-19T09:41:08;10.85;;;2.70;;
21786;SDS011;11055;50.870;4.316;2023-02-19T09:43:57;12.80;;;3.30;;
21786;SDS011;11055;50.870;4.316;2023-02-19T09:46:41;11.70;;;5.50;;
21786;SDS011;11055;50.870;4.316;2023-02-19T09:49:19;12.43;;;3.67;;
21786;SDS011;11055;50.870;4.316;2023-02-19T09:51:57;11.50;;;3.83;;
21786;SDS011;11055;50.870;4.316;2023-02-19T09:54:25;13.85;;;4.40;;
21786;SDS011;11055;50.870;4.316;2023-02-19T09:56:54;10.05;;;3.80;;
21786;SDS011;11055;50.870;4.316;2023-02-19T09:59:28;11.88;;;3.17;;
21786;SDS011;11055;50.870;4.316;2023-02-19T10:02:09;11.73;;;2.42;;
21786;SDS011;11055;50.870;4.316;2023-02-19T10:04:45;13.48;;;4.70;;
21786;SDS011;11055;50.870;4.316;2023-02-19T10:07:15;12.98;;;3.53;;
21786;SDS011;11055;50.870;4.316;2023-02-19T10:09:43;9.18;;;3.25;;
21786;SDS011;11055;50.870;4.316;2023-02-19T10:12:13;10.98;;;3.53;;
21786;SDS011;11055;50.870;4.316;2023-02-19T10:14:43;11.88;;;3.60;;
21786;SDS011;11055;50.870;4.316;2023-02-19T10:17:20;7.75;;;2.40;;
21786;SDS011;11055;50.870;4.316;2023-02-19T10:19:49;12.13;;;3.08;;
21786;SDS011;11055;50.870;4.316;2023-02-19T10:22:15;10.20;;;2.80;;
21786;SDS011;11055;50.870;4.316;2023-02-19T10:24:41;12.02;;;2.95;;
21786;SDS011;11055;50.870;4.316;2023-02-19T10:27:12;8.52;;;2.95;;
21786;SDS011;11055;50.870;4.316;2023-02-19T10:29:39;12.10;;;4.68;;
21786;SDS011;11055;50.870;4.316;2023-02-19T10:35:05;16.65;;;6.60;;
21786;SDS011;11055;50.870;4.316;2023-02-19T10:37:44;20.23;;;8.18;;
21786;SDS011;11055;50.870;4.316;2023-02-19T10:40:17;15.18;;;7.53;;
21786;SDS011;11055;50.870;4.316;2023-02-19T10:42:58;24.00;;;13.05;;
21786;SDS011;11055;50.870;4.316;2023-02-19T10:48:04;34.22;;;16.20;;
21786;SDS011;11055;50.870;4.316;2023-02-19T10:50:43;11.57;;;4.15;;
21786;SDS011;11055;50.870;4.316;2023-02-19T10:53:21;12.70;;;4.72;;
21786;SDS011;11055;50.870;4.316;2023-02-19T10:56:14;11.98;;;5.13;;
21786;SDS011;11055;50.870;4.316;2023-02-19T10:58:46;8.32;;;3.03;;
21786;SDS011;11055;50.870;4.316;2023-02-19T11:01:19;14.38;;;5.13;;
21786;SDS011;11055;50.870;4.316;2023-02-19T11:03:47;12.10;;;5.00;;
21786;SDS011;11055;50.870;4.316;2023-02-19T11:06:14;15.45;;;5.57;;
21786;SDS011;11055;50.870;4.316;2023-02-19T11:14:03;11.60;;;4.63;;
21786;SDS011;11055;50.870;4.316;2023-02-19T11:16:44;9.00;;;4.50;;
21786;SDS011;11055;50.870;4.316;2023-02-19T11:22:17;12.68;;;4.03;;
21786;SDS011;11055;50.870;4.316;2023-02-19T11:24:51;14.13;;;4.30;;
21786;SDS011;11055;50.870;4.316;2023-02-19T11:27:20;10.55;;;3.70;;
21786;SDS011;11055;50.870;4.316;2023-02-19T11:29:47;10.93;;;4.17;;
21786;SDS011;11055;50.870;4.316;2023-02-19T11:34:50;10.45;;;3.60;;
21786;SDS011;11055;50.870;4.316;2023-02-19T11:37:20;9.40;;;4.40;;
21786;SDS011;11055;50.870;4.316;2023-02-19T11:39:49;9.88;;;3.72;;
21786;SDS011;11055;50.870;4.316;2023-02-19T11:48:15;10.10;;;3.50;;
21786;SDS011;11055;50.870;4.316;2023-02-19T12:10:19;9.30;;;3.00;;
21786;SDS011;11055;50.870;4.316;2023-02-19T12:36:13;9.45;;;3.60;;
21786;SDS011;11055;50.870;4.316;2023-02-19T12:38:48;8.32;;;3.17;;
21786;SDS011;11055;50.870;4.316;2023-02-19T12:44:16;8.10;;;4.07;;
21786;SDS011;11055;50.870;4.316;2023-02-19T12:46:47;7.03;;;3.73;;
21786;SDS011;11055;50.870;4.316;2023-02-19T12:56:50;4.97;;;2.97;;
21786;SDS011;11055;50.870;4.316;2023-02-19T12:59:26;7.53;;;3.80;;
21786;SDS011;11055;50.870;4.316;2023-02-19T13:02:17;6.03;;;2.65;;
21786;SDS011;11055;50.870;4.316;2023-02-19T13:07:44;8.68;;;3.65;;
21786;SDS011;11055;50.870;4.316;2023-02-19T13:13:05;5.55;;;2.30;;
21786;SDS011;11055;50.870;4.316;2023-02-19T13:15:40;8.10;;;2.58;;
21786;SDS011;11055;50.870;4.316;2023-02-19T13:18:21;7.30;;;3.15;;
21786;SDS011;11055;50.870;4.316;2023-02-19T13:20:51;9.10;;;3.10;;
21786;SDS011;11055;50.870;4.316;2023-02-19T13:23:21;7.78;;;3.47;;
21786;SDS011;11055;50.870;4.316;2023-02-19T13:37:15;9.18;;;3.63;;
21786;SDS011;11055;50.870;4.316;2023-02-19T13:39:48;7.05;;;4.70;;
21786;SDS011;11055;50.870;4.316;2023-02-19T13:42:25;8.98;;;3.03;;
21786;SDS011;11055;50.870;4.316;2023-02-19T13:45:00;7.65;;;3.83;;
21786;SDS011;11055;50.870;4.316;2023-02-19T13:50:29;9.57;;;5.50;;
21786;SDS011;11055;50.870;4.316;2023-02-19T13:53:00;5.72;;;3.22;;
21786;SDS011;11055;50.870;4.316;2023-02-19T13:55:47;10.65;;;3.20;;
21786;SDS011;11055;50.870;4.316;2023-02-19T14:06:01;8.32;;;3.60;;
21786;SDS011;11055;50.870;4.316;2023-02-19T14:08:50;7.30;;;2.85;;
21786;SDS011;11055;50.870;4.316;2023-02-19T14:14:23;12.25;;;4.40;;
21786;SDS011;11055;50.870;4.316;2023-02-19T14:16:57;7.85;;;3.47;;
21786;SDS011;11055;50.870;4.316;2023-02-19T14:28:10;5.80;;;2.63;;
21786;SDS011;11055;50.870;4.316;2023-02-19T14:31:17;5.78;;;2.60;;
21786;SDS011;11055;50.870;4.316;2023-02-19T14:33:44;8.07;;;3.47;;
21786;SDS011;11055;50.870;4.316;2023-02-19T14:36:15;8.05;;;3.90;;
21786;SDS011;11055;50.870;4.316;2023-02-19T14:38:56;9.63;;;6.70;;
21786;SDS011;11055;50.870;4.316;2023-02-19T14:41:40;5.30;;;2.30;;
21786;SDS011;11055;50.870;4.316;2023-02-19T14:44:13;4.85;;;2.70;;
21786;SDS011;11055;50.870;4.316;2023-02-19T14:47:05;12.93;;;6.38;;
21786;SDS011;11055;50.870;4.316;2023-02-19T14:49:43;5.90;;;3.45;;
21786;SDS011;11055;50.870;4.316;2023-02-19T14:57:26;7.45;;;5.10;;
21786;SDS011;11055;50.870;4.316;2023-02-19T14:59:58;7.40;;;3.60;;
21786;SDS011;11055;50.870;4.316;2023-02-19T15:02:27;7.03;;;3.25;;
21786;SDS011;11055;50.870;4.316;2023-02-19T15:04:54;5.60;;;3.88;;
21786;SDS011;11055;50.870;4.316;2023-02-19T15:07:21;7.07;;;4.85;;
21786;SDS011;11055;50.870;4.316;2023-02-19T15:09:58;11.95;;;5.65;;
21786;SDS011;11055;50.870;4.316;2023-02-19T15:12:28;22.95;;;17.83;;
21786;SDS011;11055;50.870;4.316;2023-02-19T15:14:59;12.30;;;7.63;;
21786;SDS011;11055;50.870;4.316;2023-02-19T15:17:28;11.63;;;6.13;;
21786;SDS011;11055;50.870;4.316;2023-02-19T15:20:02;7.63;;;4.80;;
21786;SDS011;11055;50.870;4.316;2023-02-19T15:22:33;10.50;;;4.10;;
21786;SDS011;11055;50.870;4.316;2023-02-19T15:24:59;7.18;;;3.15;;
21786;SDS011;11055;50.870;4.316;2023-02-19T15:27:26;9.07;;;6.18;;
21786;SDS011;11055;50.870;4.316;2023-02-19T15:29:52;9.45;;;4.28;;
21786;SDS011;11055;50.870;4.316;2023-02-19T15:32:21;14.13;;;8.43;;
21786;SDS011;11055;50.870;4.316;2023-02-19T15:34:58;8.73;;;3.53;;
21786;SDS011;11055;50.870;4.316;2023-02-19T15:37:26;6.32;;;2.92;;
21786;SDS011;11055;50.870;4.316;2023-02-19T15:39:57;5.30;;;3.35;;
21786;SDS011;11055;50.870;4.316;2023-02-19T15:42:30;6.07;;;2.92;;
21786;SDS011;11055;50.870;4.316;2023-02-19T15:45:43;4.95;;;3.00;;
21786;SDS011;11055;50.870;4.316;2023-02-19T15:47:51;6.68;;;4.20;;
21786;SDS011;11055;50.870;4.316;2023-02-19T15:50:33;5.40;;;3.53;;
21786;SDS011;11055;50.870;4.316;2023-02-19T15:53:03;7.10;;;3.72;;
21786;SDS011;11055;50.870;4.316;2023-02-19T15:58:17;6.97;;;4.60;;
21786;SDS011;11055;50.870;4.316;2023-02-19T16:00:54;5.88;;;3.60;;
21786;SDS011;11055;50.870;4.316;2023-02-19T16:03:32;7.43;;;4.18;;
21786;SDS011;11055;50.870;4.316;2023-02-19T16:08:35;6.28;;;3.67;;
21786;SDS011;11055;50.870;4.316;2023-02-19T16:13:46;6.80;;;3.97;;
21786;SDS011;11055;50.870;4.316;2023-02-19T16:16:13;6.18;;;4.10;;
21786;SDS011;11055;50.870;4.316;2023-02-19T16:18:49;9.35;;;4.88;;
21786;SDS011;11055;50.870;4.316;2023-02-19T16:21:18;8.68;;;5.10;;
21786;SDS011;11055;50.870;4.316;2023-02-19T16:23:47;6.40;;;3.90;;
21786;SDS011;11055;50.870;4.316;2023-02-19T16:26:15;6.22;;;3.95;;
21786;SDS011;11055;50.870;4.316;2023-02-19T16:28:42;14.55;;;5.05;;
21786;SDS011;11055;50.870;4.316;2023-02-19T16:31:10;8.93;;;4.40;;
21786;SDS011;11055;50.870;4.316;2023-02-19T16:36:21;10.38;;;6.05;;
21786;SDS011;11055;50.870;4.316;2023-02-19T16:39:03;11.35;;;6.38;;
21786;SDS011;11055;50.870;4.316;2023-02-19T16:46:49;8.10;;;4.72;;
21786;SDS011;11055;50.870;4.316;2023-02-19T16:49:19;21.30;;;14.25;;
21786;SDS011;11055;50.870;4.316;2023-02-19T16:51:46;12.00;;;5.78;;
21786;SDS011;11055;50.870;4.316;2023-02-19T16:54:12;10.48;;;6.90;;
21786;SDS011;11055;50.870;4.316;2023-02-19T16:56:38;8.50;;;4.45;;
21786;SDS011;11055;50.870;4.316;2023-02-19T16:59:04;17.10;;;10.57;;
21786;SDS011;11055;50.870;4.316;2023-02-19T17:01:31;9.80;;;6.45;;
21786;SDS011;11055;50.870;4.316;2023-02-19T17:03:58;27.48;;;16.60;;
21786;SDS011;11055;50.870;4.316;2023-02-19T17:06:26;13.75;;;6.05;;
21786;SDS011;11055;50.870;4.316;2023-02-19T17:08:52;16.27;;;8.50;;
21786;SDS011;11055;50.870;4.316;2023-02-19T17:11:18;9.80;;;4.72;;
21786;SDS011;11055;50.870;4.316;2023-02-19T17:13:45;12.63;;;6.22;;
21786;SDS011;11055;50.870;4.316;2023-02-19T17:16:21;11.30;;;4.90;;
21786;SDS011;11055;50.870;4.316;2023-02-19T17:18:49;16.33;;;9.15;;
21786;SDS011;11055;50.870;4.316;2023-02-19T17:23:48;9.23;;;7.07;;
21786;SDS011;11055;50.870;4.316;2023-02-19T17:26:15;26.48;;;19.00;;
21786;SDS011;11055;50.870;4.316;2023-02-19T17:28:43;16.48;;;9.48;;
21786;SDS011;11055;50.870;4.316;2023-02-19T17:31:09;13.45;;;8.65;;
21786;SDS011;11055;50.870;4.316;2023-02-19T17:33:35;15.25;;;10.30;;
21786;SDS011;11055;50.870;4.316;2023-02-19T17:36:01;13.98;;;8.65;;
21786;SDS011;11055;50.870;4.316;2023-02-19T17:38:27;15.70;;;10.20;;
21786;SDS011;11055;50.870;4.316;2023-02-19T17:40:53;16.92;;;9.75;;
21786;SDS011;11055;50.870;4.316;2023-02-19T17:43:19;13.27;;;9.82;;
21786;SDS011;11055;50.870;4.316;2023-02-19T17:45:44;17.83;;;12.10;;
21786;SDS011;11055;50.870;4.316;2023-02-19T17:48:13;31.95;;;19.10;;
21786;SDS011;11055;50.870;4.316;2023-02-19T17:50:39;71.13;;;38.83;;